Time;durP1;ratioP1;P1;durP2;ratioP2;P2;SDS_P1;SDS_P2;PMS_P1;PMS_P2;Temp;Humidity;BMP_temperature;BMP_pressure;BME280_temperature;BME280_humidity;BME280_pressure;Samples;Min_cycle;Max_cycle;Signal;HPM_P1;HPM_P2
2023/05/03 00:00:12;;;;;;;;;20.00;19.00;;;;;16.78;66.75;99416.56;5968451;29;96960;-62
2023/05/03 00:03:16;;;;;;;;;18.00;17.00;;;;;16.80;66.89;99421.78;5969611;29;96274;-62
2023/05/03 00:06:20;;;;;;;;;19.00;18.00;;;;;16.78;66.95;99413.84;5987199;29;96305;-62
2023/05/03 00:09:25;;;;;;;;;18.80;16.80;;;;;16.72;66.92;99409.38;5991362;29;96327;-62
2023/05/03 00:12:28;;;;;;;;;19.25;18.25;;;;;16.76;67.13;99418.69;5975397;29;96709;-62
2023/05/03 00:15:31;;;;;;;;;19.60;18.00;;;;;16.69;67.38;99407.16;5974805;29;96044;-62
2023/05/03 00:18:35;;;;;;;;;19.00;18.00;;;;;16.73;67.26;99415.66;5991489;29;96284;-63
2023/05/03 00:21:38;;;;;;;;;18.40;17.40;;;;;16.78;67.12;99405.69;5990896;29;96302;-62
2023/05/03 00:24:43;;;;;;;;;17.00;16.00;;;;;16.81;66.89;99407.09;5989884;29;96285;-62
2023/05/03 00:27:46;;;;;;;;;21.00;18.00;;;;;16.83;67.17;99403.03;5967281;29;96800;-62
2023/05/03 00:30:50;;;;;;;;;19.80;17.80;;;;;16.87;66.98;99400.63;5966885;29;96339;-62
2023/05/03 00:33:53;;;;;;;;;18.80;18.00;;;;;16.86;66.90;99407.13;5967933;29;96253;-62
2023/05/03 00:36:56;;;;;;;;;21.00;19.00;;;;;16.81;67.14;99410.59;5983856;29;96315;-62
2023/05/03 00:40:01;;;;;;;;;19.00;19.00;;;;;16.80;67.15;99410.88;5972730;29;96418;-62
2023/05/03 00:43:05;;;;;;;;;20.00;19.25;;;;;16.79;67.11;99411.94;5989939;29;96305;-61
2023/05/03 00:46:10;;;;;;;;;21.60;21.00;;;;;16.75;67.16;99392.56;5989611;29;96769;-63
2023/05/03 00:49:20;;;;;;;;;17.00;17.00;;;;;16.81;67.05;99401.66;5990538;29;96488;-62
2023/05/03 00:52:24;;;;;;;;;24.20;20.00;;;;;16.86;66.96;99404.41;5969993;29;98543;-63
2023/05/03 00:55:30;;;;;;;;;20.80;19.80;;;;;16.84;67.06;99401.13;5971915;29;96461;-60
2023/05/03 00:58:35;;;;;;;;;20.00;17.50;;;;;16.78;67.06;99404.84;5987518;29;96855;-60
2023/05/03 01:01:38;;;;;;;;;22.25;21.25;;;;;16.83;66.59;99411.19;5967241;29;96332;-60
2023/05/03 01:04:42;;;;;;;;;22.00;19.00;;;;;16.81;66.88;99412.53;5965645;29;96344;-60
2023/05/03 01:08:01;;;;;;;;;22.40;19.60;;;;;16.82;66.92;99419.59;5966362;29;96735;-60
2023/05/03 01:11:11;;;;;;;;;20.60;19.60;;;;;16.82;66.85;99416.88;5979405;29;96722;-61
2023/05/03 01:14:22;;;;;;;;;22.00;21.00;;;;;16.81;66.72;99420.69;6000797;29;96353;-62
2023/05/03 01:17:29;;;;;;;;;23.00;19.00;;;;;16.78;66.46;99418.47;6029814;29;96840;-62
2023/05/03 01:20:35;;;;;;;;;24.00;21.40;;;;;16.80;66.56;99416.31;5997080;29;98410;-62
2023/05/03 01:23:43;;;;;;;;;23.00;21.00;;;;;16.78;66.48;99422.00;5991048;29;96534;-62
2023/05/03 01:26:48;;;;;;;;;24.00;21.00;;;;;16.77;66.73;99409.47;5990501;29;96383;-61
2023/05/03 01:29:51;;;;;;;;;24.00;23.00;;;;;16.76;66.61;99410.53;5980198;29;96301;-61
2023/05/03 01:33:03;;;;;;;;;24.00;22.00;;;;;16.75;66.44;99417.06;5995789;29;96383;-60
2023/05/03 01:36:13;;;;;;;;;22.20;22.00;;;;;16.72;66.61;99414.84;5964557;29;96551;-60
2023/05/03 01:39:21;;;;;;;;;22.00;19.00;;;;;16.70;66.53;99413.44;5971895;29;96484;-61
2023/05/03 01:42:27;;;;;;;;;22.80;20.40;;;;;16.66;66.52;99409.56;5989295;29;96349;-61
2023/05/03 01:45:30;;;;;;;;;23.60;21.00;;;;;16.66;66.41;99413.13;5989249;29;96290;-60
2023/05/03 01:48:34;;;;;;;;;22.40;20.00;;;;;16.68;66.36;99413.69;5965123;29;98496;-61
2023/05/03 01:51:38;;;;;;;;;23.40;22.40;;;;;16.68;66.20;99419.13;5989271;29;96374;-61
2023/05/03 01:54:41;;;;;;;;;25.50;23.00;;;;;16.64;66.21;99411.72;5987630;29;96288;-60
2023/05/03 01:57:46;;;;;;;;;19.50;19.00;;;;;16.61;66.04;99418.50;5987677;29;96352;-60
2023/05/03 02:00:49;;;;;;;;;24.00;22.00;;;;;16.62;65.85;99419.28;5970280;29;98984;-60
2023/05/03 02:03:53;;;;;;;;;25.00;22.00;;;;;16.63;65.84;99402.72;5987567;29;97814;-60
2023/05/03 02:06:56;;;;;;;;;24.00;22.00;;;;;16.64;65.84;99403.53;5987755;29;96494;-61
2023/05/03 02:10:00;;;;;;;;;24.00;22.00;;;;;16.66;65.76;99413.13;5977131;29;96277;-61
2023/05/03 02:13:05;;;;;;;;;23.00;21.20;;;;;16.67;65.64;99409.31;5988823;29;96449;-61
2023/05/03 02:16:08;;;;;;;;;26.00;23.00;;;;;16.52;65.71;99403.59;6026069;29;96366;-60
2023/05/03 02:19:12;;;;;;;;;26.00;23.60;;;;;16.58;66.04;99410.81;6016039;29;96145;-60
2023/05/03 02:22:15;;;;;;;;;29.25;25.00;;;;;16.59;66.08;99420.63;5999273;29;96321;-61
2023/05/03 02:25:19;;;;;;;;;29.00;26.00;;;;;16.59;66.05;99419.78;6003113;29;96311;-60
2023/05/03 02:28:23;;;;;;;;;22.40;21.40;;;;;16.48;66.04;99414.16;5988504;29;96352;-60
2023/05/03 02:31:27;;;;;;;;;21.00;20.40;;;;;16.54;66.20;99409.63;5965940;29;96330;-61
2023/05/03 02:34:32;;;;;;;;;16.20;16.20;;;;;16.57;66.33;99416.44;5981008;29;96497;-60
2023/05/03 02:37:36;;;;;;;;;24.00;23.40;;;;;16.61;66.13;99413.03;5965744;29;96315;-60
2023/05/03 02:40:44;;;;;;;;;26.00;22.00;;;;;16.60;66.10;99407.84;5964002;29;98482;-60
2023/05/03 02:43:49;;;;;;;;;26.40;25.40;;;;;16.59;66.12;99417.06;6003712;29;96330;-60
2023/05/03 02:46:54;;;;;;;;;24.40;22.40;;;;;16.61;65.91;99409.50;6001682;29;96332;-60
2023/05/03 02:49:59;;;;;;;;;21.00;20.50;;;;;16.66;65.68;99415.03;5987551;29;96459;-61
2023/05/03 02:53:05;;;;;;;;;25.20;24.20;;;;;16.67;65.69;99413.91;5984041;29;96132;-60
2023/05/03 02:56:10;;;;;;;;;25.50;23.00;;;;;16.63;65.51;99415.50;5982396;29;97765;-60
2023/05/03 02:59:14;;;;;;;;;27.40;26.00;;;;;16.65;65.93;99414.19;5999323;29;96282;-60
2023/05/03 03:02:18;;;;;;;;;27.50;24.75;;;;;16.65;65.73;99424.25;5982471;29;96297;-61
2023/05/03 03:05:21;;;;;;;;;25.60;24.00;;;;;16.63;65.68;99420.94;5987071;29;96320;-61
2023/05/03 03:08:26;;;;;;;;;27.00;27.00;;;;;16.63;66.00;99421.78;5988313;29;96312;-60
2023/05/03 03:11:34;;;;;;;;;27.40;24.80;;;;;16.61;66.14;99423.09;6004888;29;96401;-61
2023/05/03 03:14:38;;;;;;;;;30.00;26.60;;;;;16.52;66.29;99403.59;5988150;29;98393;-60
2023/05/03 03:17:42;;;;;;;;;27.75;26.75;;;;;16.54;66.32;99400.63;5980063;29;99336;-61
2023/05/03 03:20:46;;;;;;;;;27.50;23.50;;;;;16.69;66.30;99420.78;5983168;29;96289;-61
2023/05/03 03:23:49;;;;;;;;;26.60;23.60;;;;;16.70;66.30;99413.44;5988867;29;96482;-59
2023/05/03 03:26:54;;;;;;;;;27.40;27.00;;;;;16.72;66.36;99420.28;5996312;29;96238;-60
2023/05/03 03:30:00;;;;;;;;;26.50;24.50;;;;;16.74;66.54;99420.03;5985154;29;96269;-60
2023/05/03 03:33:07;;;;;;;;;28.00;26.00;;;;;16.67;66.62;99409.31;5979557;29;96263;-60
2023/05/03 03:36:15;;;;;;;;;28.60;26.00;;;;;16.80;66.46;99422.59;5983427;29;96308;-60
2023/05/03 03:39:21;;;;;;;;;32.60;28.00;;;;;16.82;66.17;99425.06;6002030;29;96281;-61
2023/05/03 03:42:24;;;;;;;;;31.00;28.00;;;;;16.81;66.08;99424.22;5981948;29;96372;-60
2023/05/03 03:45:29;;;;;;;;;29.60;27.00;;;;;16.70;66.31;99402.56;5988707;29;97030;-60
2023/05/03 03:48:34;;;;;;;;;30.00;26.00;;;;;16.79;66.07;99422.84;5982604;29;96748;-60
2023/05/03 03:51:37;;;;;;;;;26.60;26.20;;;;;16.80;66.08;99421.78;6002702;29;96401;-61
2023/05/03 03:54:41;;;;;;;;;33.00;30.00;;;;;16.84;66.05;99428.38;5987176;29;96532;-61
2023/05/03 03:57:44;;;;;;;;;29.60;27.40;;;;;16.87;65.86;99436.03;6001736;29;96417;-60
2023/05/03 04:00:50;;;;;;;;;34.60;31.00;;;;;16.86;65.89;99432.47;6025076;29;96425;-61
2023/05/03 04:03:57;;;;;;;;;29.20;25.20;;;;;16.86;65.81;99434.38;5988306;29;96854;-61
2023/05/03 04:07:01;;;;;;;;;31.60;29.60;;;;;16.85;66.19;99438.19;5978754;29;96277;-60
2023/05/03 04:10:05;;;;;;;;;29.20;27.60;;;;;16.86;65.76;99437.91;5987468;29;96528;-60
2023/05/03 04:13:09;;;;;;;;;31.40;27.60;;;;;16.86;65.71;99440.66;5989093;29;96541;-60
2023/05/03 04:16:15;;;;;;;;;30.60;27.60;;;;;16.90;65.85;99446.44;5987870;29;96080;-61
2023/05/03 04:19:21;;;;;;;;;37.20;30.00;;;;;16.93;65.84;99445.09;5984504;29;96885;-61
2023/05/03 04:22:25;;;;;;;;;33.60;30.60;;;;;16.93;65.72;99448.66;5966696;29;98458;-61
2023/05/03 04:25:30;;;;;;;;;34.80;30.20;;;;;16.95;65.47;99456.59;6003648;29;96287;-59
2023/05/03 04:28:39;;;;;;;;;30.20;28.20;;;;;16.94;65.43;99450.31;6001207;29;97679;-61
2023/05/03 04:31:45;;;;;;;;;31.00;27.50;;;;;16.95;65.27;99453.88;5982377;29;96981;-61
2023/05/03 04:34:51;;;;;;;;;30.00;27.40;;;;;16.98;65.18;99458.81;5972632;29;96340;-60
2023/05/03 04:37:58;;;;;;;;;35.00;30.00;;;;;17.00;64.85;99462.13;5987128;29;96391;-60
2023/05/03 04:41:03;;;;;;;;;28.60;26.00;;;;;16.99;64.91;99466.72;5963052;29;98410;-60
2023/05/03 04:44:06;;;;;;;;;30.60;27.40;;;;;16.94;64.83;99461.19;5963647;29;96744;-60
2023/05/03 04:47:11;;;;;;;;;30.40;27.00;;;;;16.97;65.09;99466.16;5982686;29;96283;-60
2023/05/03 04:50:16;;;;;;;;;34.00;30.60;;;;;16.96;65.67;99464.50;6000276;29;96309;-60
2023/05/03 04:53:24;;;;;;;;;36.75;32.00;;;;;16.96;65.55;99471.88;5969450;29;96683;-61
2023/05/03 04:56:36;;;;;;;;;30.20;28.20;;;;;16.80;65.48;99455.28;5987854;29;96459;-60
2023/05/03 04:59:47;;;;;;;;;33.75;29.75;;;;;16.97;65.59;99476.22;5983291;29;96424;-60
2023/05/03 05:02:51;;;;;;;;;28.25;26.25;;;;;16.96;65.32;99482.75;5986492;29;98909;-60
2023/05/03 05:05:55;;;;;;;;;34.20;29.20;;;;;16.99;65.49;99488.53;6003821;29;96357;-62
2023/05/03 05:08:59;;;;;;;;;31.50;29.00;;;;;17.02;65.17;99487.19;5987393;29;99054;-63
2023/05/03 05:12:02;;;;;;;;;34.00;30.00;;;;;17.03;65.18;99492.41;5988816;29;96321;-60
2023/05/03 05:15:12;;;;;;;;;32.00;29.60;;;;;16.97;65.14;99484.38;5985875;29;96272;-60
2023/05/03 05:18:17;;;;;;;;;34.40;30.00;;;;;17.04;65.30;99495.94;6000669;29;96384;-61
2023/05/03 05:21:22;;;;;;;;;28.25;26.25;;;;;17.00;64.93;99501.06;5990302;29;96414;-60
2023/05/03 05:24:26;;;;;;;;;29.60;27.00;;;;;17.05;64.84;99503.06;5987833;29;96215;-61
2023/05/03 05:27:29;;;;;;;;;32.00;29.75;;;;;17.09;64.39;99507.75;5998819;29;97514;-60
2023/05/03 05:30:35;;;;;;;;;31.60;29.00;;;;;17.07;64.76;99507.16;5983627;29;96368;-60
2023/05/03 05:33:39;;;;;;;;;32.60;30.00;;;;;17.13;64.39;99510.81;5988451;29;97014;-60
2023/05/03 05:36:43;;;;;;;;;29.00;27.25;;;;;17.14;64.51;99516.00;5974063;29;98493;-60
2023/05/03 05:39:46;;;;;;;;;31.00;27.60;;;;;17.19;65.06;99515.25;5985755;29;96367;-60
2023/05/03 05:42:51;;;;;;;;;28.60;27.00;;;;;17.20;64.98;99517.72;5973510;29;96349;-60
2023/05/03 05:45:56;;;;;;;;;32.40;29.00;;;;;17.20;64.51;99515.00;5991583;29;96586;-60
2023/05/03 05:49:01;;;;;;;;;33.80;30.00;;;;;17.19;64.51;99523.44;5970029;29;96698;-60
2023/05/03 05:52:05;;;;;;;;;36.00;31.00;;;;;17.12;64.15;99517.31;5972805;29;96685;-60
2023/05/03 05:55:12;;;;;;;;;29.20;28.20;;;;;17.16;64.38;99522.00;5971700;29;96320;-60
2023/05/03 05:58:16;;;;;;;;;33.50;30.00;;;;;17.16;64.86;99524.75;5971974;29;96617;-60
2023/05/03 06:01:25;;;;;;;;;32.20;30.00;;;;;17.19;65.39;99527.00;5973083;29;96467;-60
2023/05/03 06:04:31;;;;;;;;;28.40;24.40;;;;;17.24;65.53;99529.78;5967915;29;99499;-60
2023/05/03 06:07:34;;;;;;;;;26.40;24.00;;;;;17.29;65.19;99534.50;5990545;29;96447;-60
2023/05/03 06:10:38;;;;;;;;;26.60;24.00;;;;;17.28;64.86;99532.84;5972267;29;96334;-59
2023/05/03 06:13:42;;;;;;;;;25.80;22.80;;;;;17.31;64.77;99541.31;5986848;29;96277;-62
2023/05/03 06:16:49;;;;;;;;;27.50;24.75;;;;;17.38;64.54;99540.34;5986983;29;96753;-62
2023/05/03 06:19:54;;;;;;;;;21.80;20.20;;;;;17.43;64.57;99545.88;5967372;29;97604;-63
2023/05/03 06:22:57;;;;;;;;;25.60;24.00;;;;;17.38;64.31;99532.16;5969523;29;96547;-62
2023/05/03 06:26:01;;;;;;;;;26.00;24.00;;;;;17.32;63.95;99523.91;5971079;29;97170;-60
2023/05/03 06:29:05;;;;;;;;;24.40;23.40;;;;;17.49;64.20;99548.44;5985531;29;96512;-60
2023/05/03 06:32:08;;;;;;;;;23.00;23.00;;;;;17.49;63.53;99548.44;5975470;29;96862;-62
2023/05/03 06:35:14;;;;;;;;;24.33;23.00;;;;;17.50;63.60;99544.59;5980908;29;96643;-63
2023/05/03 06:38:18;;;;;;;;;22.00;21.00;;;;;17.44;64.02;99536.63;5971256;29;98854;-60
2023/05/03 06:41:21;;;;;;;;;23.00;22.40;;;;;17.53;64.32;99551.47;5976140;29;96509;-61
2023/05/03 06:44:25;;;;;;;;;24.00;21.50;;;;;17.51;64.00;99554.44;5974602;29;96701;-61
2023/05/03 06:47:28;;;;;;;;;26.25;23.25;;;;;17.53;63.72;99551.47;5971024;29;96265;-60
2023/05/03 06:50:33;;;;;;;;;19.00;18.00;;;;;17.51;63.65;99550.88;5975682;29;98978;-60
2023/05/03 06:53:37;;;;;;;;;24.00;20.60;;;;;17.50;63.22;99560.13;5974146;29;96572;-60
2023/05/03 06:56:40;;;;;;;;;22.40;21.00;;;;;17.48;63.36;99563.13;5975027;29;96916;-60
2023/05/03 06:59:43;;;;;;;;;23.00;22.00;;;;;17.48;64.09;99567.75;5973883;29;96508;-61
2023/05/03 07:02:47;;;;;;;;;22.75;21.75;;;;;17.48;63.53;99565.03;5976413;29;96211;-60
2023/05/03 07:05:52;;;;;;;;;20.40;19.40;;;;;17.49;63.67;99567.50;5975486;29;96333;-61
2023/05/03 07:08:55;;;;;;;;;21.00;19.00;;;;;17.48;63.36;99565.03;5976357;29;96319;-61
2023/05/03 07:11:59;;;;;;;;;18.60;17.00;;;;;17.50;63.59;99573.75;5976386;29;96357;-61
2023/05/03 07:15:03;;;;;;;;;17.40;16.00;;;;;17.53;63.47;99573.28;5975763;29;97074;-60
2023/05/03 07:18:07;;;;;;;;;17.00;15.50;;;;;17.58;63.59;99581.53;5991155;29;96432;-61
2023/05/03 07:21:12;;;;;;;;;15.00;14.80;;;;;17.48;63.25;99562.28;5999109;29;96436;-61
2023/05/03 07:24:16;;;;;;;;;18.00;17.00;;;;;17.63;63.25;99568.00;5997925;29;98014;-62
2023/05/03 07:27:19;;;;;;;;;19.00;17.80;;;;;17.66;63.50;99578.41;5976411;29;96225;-60
2023/05/03 07:30:23;;;;;;;;;15.20;14.20;;;;;17.69;62.40;99570.53;5962318;29;96983;-60
2023/05/03 07:33:26;;;;;;;;;15.60;14.40;;;;;17.67;62.47;99580.88;5976522;29;96382;-61
2023/05/03 07:36:31;;;;;;;;;14.00;14.00;;;;;17.72;62.16;99580.97;5965586;29;97467;-61
2023/05/03 07:39:35;;;;;;;;;14.00;13.40;;;;;17.71;61.95;99581.19;5953360;29;96543;-61
2023/05/03 07:42:38;;;;;;;;;15.60;15.60;;;;;17.77;61.63;99587.56;5972824;29;96347;-63
2023/05/03 07:45:42;;;;;;;;;16.00;14.00;;;;;17.78;61.83;99586.50;5976020;29;96373;-63
2023/05/03 07:48:45;;;;;;;;;15.60;15.00;;;;;17.83;60.62;99594.75;5975107;29;97024;-63
2023/05/03 07:51:51;;;;;;;;;18.00;16.00;;;;;17.72;60.90;99575.50;5973608;29;96938;-62
2023/05/03 07:54:54;;;;;;;;;17.00;15.00;;;;;17.82;60.77;99591.19;5977699;29;96405;-61
2023/05/03 07:57:58;;;;;;;;;15.00;14.00;;;;;17.89;60.98;99590.97;5984991;29;96328;-60
2023/05/03 08:01:02;;;;;;;;;16.60;15.60;;;;;17.94;60.34;99604.69;5990703;29;97909;-60
2023/05/03 08:04:06;;;;;;;;;19.60;17.60;;;;;17.98;60.39;99597.69;5990122;29;96644;-61
2023/05/03 08:07:11;;;;;;;;;18.00;15.25;;;;;18.00;60.80;99604.53;5994443;29;96207;-61
2023/05/03 08:10:15;;;;;;;;;16.00;15.00;;;;;18.09;60.80;99599.44;6000797;29;96295;-61
2023/05/03 08:13:21;;;;;;;;;14.75;14.00;;;;;18.16;60.55;99602.81;5987910;29;96298;-60
2023/05/03 08:16:25;;;;;;;;;15.00;14.40;;;;;18.20;60.15;99601.22;5989224;29;96247;-61
2023/05/03 08:19:28;;;;;;;;;17.60;16.00;;;;;18.26;60.54;99596.66;5993662;29;96334;-61
2023/05/03 08:22:34;;;;;;;;;18.00;18.00;;;;;18.35;60.65;99606.06;5990287;29;97319;-60
2023/05/03 08:25:37;;;;;;;;;18.00;17.00;;;;;18.45;59.47;99597.97;5986763;29;97193;-60
2023/05/03 08:28:40;;;;;;;;;16.00;13.80;;;;;18.56;59.11;99608.81;5994344;29;96240;-61
2023/05/03 08:31:43;;;;;;;;;16.33;15.33;;;;;18.54;59.03;99601.94;5994023;29;96405;-60
2023/05/03 08:34:47;;;;;;;;;17.50;16.00;;;;;18.59;59.43;99611.03;5996683;29;96078;-61
2023/05/03 08:37:52;;;;;;;;;19.00;19.00;;;;;18.67;59.73;99607.00;5993338;29;96338;-61
2023/05/03 08:40:59;;;;;;;;;19.00;18.00;;;;;18.72;59.11;99612.50;5992784;29;97106;-61
2023/05/03 08:44:04;;;;;;;;;17.00;16.00;;;;;18.73;59.05;99616.06;5992971;29;96427;-61
2023/05/03 08:47:08;;;;;;;;;18.20;17.00;;;;;18.79;58.96;99615.03;5989443;29;98614;-60
2023/05/03 08:50:13;;;;;;;;;18.00;16.00;;;;;18.79;58.35;99615.88;5992285;29;96704;-61
2023/05/03 08:53:17;;;;;;;;;17.00;16.60;;;;;18.91;57.94;99621.19;5985124;29;96257;-61
2023/05/03 08:56:29;;;;;;;;;19.00;16.20;;;;;18.97;58.11;99623.69;5991960;29;96389;-61
2023/05/03 08:59:32;;;;;;;;;20.20;17.20;;;;;19.06;57.65;99623.25;5991481;29;96345;-61
2023/05/03 09:02:37;;;;;;;;;20.00;19.00;;;;;19.16;58.13;99624.16;5991787;29;96321;-61
2023/05/03 09:05:43;;;;;;;;;21.50;19.00;;;;;19.17;57.30;99616.78;5978148;29;96286;-60
2023/05/03 09:08:47;;;;;;;;;19.60;19.00;;;;;19.24;56.78;99612.75;5971029;29;96638;-61
2023/05/03 09:11:51;;;;;;;;;18.80;17.80;;;;;19.25;57.37;99622.63;5991491;29;96286;-61
2023/05/03 09:14:54;;;;;;;;;20.60;18.60;;;;;19.24;57.26;99606.47;6014118;29;98481;-61
2023/05/03 09:18:16;;;;;;;;;17.40;17.00;;;;;19.41;56.01;99632.56;5990546;29;96239;-61
2023/05/03 09:21:20;;;;;;;;;20.00;18.80;;;;;19.44;56.20;99625.81;5971887;29;96738;-61
2023/05/03 09:24:25;;;;;;;;;19.00;18.00;;;;;19.52;55.76;99629.94;5993385;29;96562;-61
2023/05/03 09:27:28;;;;;;;;;19.00;17.00;;;;;19.59;56.14;99630.56;5991094;29;96381;-61
2023/05/03 09:30:31;;;;;;;;;18.00;18.00;;;;;19.64;56.23;99633.34;5992989;29;96363;-61
2023/05/03 09:33:35;;;;;;;;;21.00;19.40;;;;;19.70;55.93;99638.56;5994579;29;98881;-61
2023/05/03 09:36:46;;;;;;;;;19.75;19.00;;;;;19.69;55.52;99638.84;5970982;29;98953;-61
2023/05/03 09:40:06;;;;;;;;;19.40;18.40;;;;;19.62;54.48;99638.22;5987710;29;96872;-61
2023/05/03 09:43:11;;;;;;;;;17.20;15.80;;;;;19.49;54.63;99635.97;5973706;29;96396;-61
2023/05/03 09:46:15;;;;;;;;;19.75;16.00;;;;;19.47;55.36;99636.22;5973454;29;97831;-61
2023/05/03 09:49:18;;;;;;;;;19.50;17.00;;;;;19.53;55.51;99631.59;5978030;29;98612;-61
2023/05/03 09:52:22;;;;;;;;;19.00;18.00;;;;;19.53;55.60;99637.91;5970848;29;99803;-61
2023/05/03 09:55:28;;;;;;;;;18.00;16.40;;;;;19.43;54.53;99629.59;5980746;29;96530;-61
2023/05/03 09:58:33;;;;;;;;;17.20;16.20;;;;;19.37;54.84;99631.44;5987909;29;96192;-60
2023/05/03 10:01:37;;;;;;;;;17.20;16.20;;;;;19.15;54.86;99628.00;6003641;29;96661;-61
2023/05/03 10:04:50;;;;;;;;;19.00;18.00;;;;;19.10;54.70;99638.88;5991996;29;97768;-60
2023/05/03 10:07:58;;;;;;;;;22.40;21.00;;;;;19.09;56.00;99633.66;5983327;29;96461;-61
2023/05/03 10:11:04;;;;;;;;;18.00;17.00;;;;;19.04;55.07;99629.78;5986397;29;96226;-61
2023/05/03 10:14:08;;;;;;;;;17.00;17.00;;;;;19.11;55.53;99640.50;5999707;29;96401;-61
2023/05/03 10:17:16;;;;;;;;;16.20;16.00;;;;;19.10;56.28;99635.31;5997625;29;96356;-61
2023/05/03 10:20:27;;;;;;;;;17.40;16.40;;;;;19.03;55.58;99628.13;6015648;29;96250;-61
2023/05/03 10:23:30;;;;;;;;;15.00;14.00;;;;;19.13;55.75;99634.78;6015432;29;96353;-61
2023/05/03 10:26:35;;;;;;;;;18.00;17.60;;;;;19.21;56.30;99631.56;5987390;29;98795;-61
2023/05/03 10:29:48;;;;;;;;;17.40;15.40;;;;;19.32;56.76;99625.94;5995953;29;96921;-60
2023/05/03 10:32:52;;;;;;;;;18.00;16.75;;;;;19.26;54.36;99626.97;5995605;29;96680;-61
2023/05/03 10:35:56;;;;;;;;;17.00;16.60;;;;;19.37;55.15;99636.09;6008580;29;96261;-61
2023/05/03 10:39:00;;;;;;;;;17.00;16.00;;;;;19.39;55.82;99636.66;6014038;29;96442;-61
2023/05/03 10:42:08;;;;;;;;;16.00;15.00;;;;;19.36;55.39;99632.53;6010623;29;96266;-61
2023/05/03 10:45:22;;;;;;;;;16.00;15.50;;;;;19.34;54.02;99634.72;5996128;29;97360;-61
2023/05/03 10:48:25;;;;;;;;;15.00;15.00;;;;;19.35;54.86;99630.06;5998387;29;96276;-61
2023/05/03 10:51:35;;;;;;;;;14.00;12.50;;;;;19.38;54.72;99635.00;6010565;29;97232;-61
2023/05/03 10:54:39;;;;;;;;;15.50;15.00;;;;;19.39;54.44;99637.50;5996147;29;96259;-61
2023/05/03 10:57:46;;;;;;;;;15.80;13.00;;;;;19.40;54.41;99636.38;6012828;29;97593;-61
2023/05/03 11:00:51;;;;;;;;;17.00;16.40;;;;;19.37;55.35;99638.81;5991879;29;96389;-61
2023/05/03 11:04:02;;;;;;;;;18.00;16.00;;;;;19.39;54.90;99642.97;5986930;29;98476;-60
2023/05/03 11:07:06;;;;;;;;;15.00;14.00;;;;;19.37;56.08;99649.75;5992878;29;96320;-61
2023/05/03 11:10:17;;;;;;;;;16.25;15.75;;;;;19.32;55.41;99645.06;5993077;29;96078;-61
2023/05/03 11:13:21;;;;;;;;;15.20;12.40;;;;;19.29;54.44;99644.78;5977290;29;96565;-61
2023/05/03 11:16:26;;;;;;;;;13.40;12.40;;;;;19.20;54.69;99646.34;5978268;29;96931;-61
2023/05/03 11:19:29;;;;;;;;;13.40;12.40;;;;;19.13;54.85;99648.44;5982810;29;98547;-61
2023/05/03 11:22:33;;;;;;;;;15.00;14.00;;;;;19.03;54.91;99646.44;5994582;29;96723;-61
2023/05/03 11:25:37;;;;;;;;;13.40;12.00;;;;;19.00;55.43;99646.97;5983712;29;96474;-61
2023/05/03 11:28:43;;;;;;;;;14.80;14.00;;;;;18.99;55.60;99642.59;5996111;29;96413;-61
2023/05/03 11:31:46;;;;;;;;;12.00;12.00;;;;;18.97;55.80;99645.56;5990325;29;97276;-62
2023/05/03 11:34:50;;;;;;;;;15.00;15.00;;;;;18.91;55.61;99649.31;5994506;29;96487;-61
2023/05/03 11:37:53;;;;;;;;;14.60;14.00;;;;;18.88;56.05;99640.81;6010958;29;96805;-62
2023/05/03 11:40:57;;;;;;;;;15.00;13.20;;;;;18.87;55.48;99644.63;5989405;29;97393;-61
2023/05/03 11:44:02;;;;;;;;;18.80;16.00;;;;;18.85;56.39;99647.63;5984427;29;98525;-60
2023/05/03 11:47:19;;;;;;;;;16.50;15.25;;;;;18.85;57.26;99655.00;5988503;29;96992;-61
2023/05/03 11:50:44;;;;;;;;;16.00;15.00;;;;;18.79;56.65;99654.13;5994242;29;96837;-61
2023/05/03 11:53:48;;;;;;;;;18.40;17.00;;;;;18.78;55.78;99652.47;5998975;29;96538;-61
2023/05/03 11:56:56;;;;;;;;;15.25;14.25;;;;;18.75;56.20;99663.91;5990906;29;96369;-61
2023/05/03 12:00:13;;;;;;;;;17.60;16.20;;;;;18.71;55.82;99654.59;5990910;29;96813;-61
2023/05/03 12:03:18;;;;;;;;;18.00;17.25;;;;;18.71;56.75;99656.50;5994939;29;96256;-61
2023/05/03 12:06:22;;;;;;;;;20.00;19.00;;;;;18.72;56.13;99652.66;5994310;29;96959;-61
2023/05/03 12:09:26;;;;;;;;;18.75;18.00;;;;;18.67;55.94;99649.91;5991355;29;96346;-61
2023/05/03 12:12:31;;;;;;;;;17.00;16.00;;;;;18.66;55.88;99646.34;5993007;29;98382;-61
2023/05/03 12:15:42;;;;;;;;;20.00;19.00;;;;;18.73;56.32;99648.84;5981961;29;96241;-61
2023/05/03 12:18:48;;;;;;;;;16.60;16.00;;;;;18.67;56.02;99650.69;5990326;29;96507;-61
2023/05/03 12:21:52;;;;;;;;;18.00;17.00;;;;;18.70;55.88;99649.38;5990329;29;96285;-61
2023/05/03 12:25:16;;;;;;;;;18.60;17.00;;;;;18.69;56.22;99654.00;6002441;29;96443;-61
2023/05/03 12:28:22;;;;;;;;;17.75;16.75;;;;;18.76;56.89;99646.44;5990444;29;96391;-62
2023/05/03 12:31:27;;;;;;;;;20.60;19.60;;;;;18.81;56.37;99641.03;5984814;29;96612;-61
2023/05/03 12:34:32;;;;;;;;;17.60;17.40;;;;;18.83;55.65;99644.31;5990162;29;96957;-61
2023/05/03 12:37:38;;;;;;;;;18.20;17.00;;;;;18.83;54.78;99641.59;5985026;29;97309;-61
2023/05/03 12:40:45;;;;;;;;;17.50;16.50;;;;;18.82;55.26;99644.56;5985355;29;96463;-61
2023/05/03 12:43:51;;;;;;;;;17.00;16.00;;;;;18.76;55.78;99642.88;5990837;29;96386;-61
2023/05/03 12:46:56;;;;;;;;;17.60;16.60;;;;;18.72;55.54;99650.75;5991097;29;97549;-61
2023/05/03 12:50:03;;;;;;;;;16.00;16.00;;;;;18.68;55.90;99644.16;5980163;29;96303;-61
2023/05/03 12:53:08;;;;;;;;;20.00;18.00;;;;;18.63;55.73;99646.00;5999060;29;97844;-61
2023/05/03 12:56:13;;;;;;;;;17.80;16.40;;;;;18.54;55.77;99641.00;5987222;29;97026;-60
2023/05/03 12:59:17;;;;;;;;;18.00;17.20;;;;;18.47;55.78;99642.25;6006171;29;96284;-61
2023/05/03 13:02:42;;;;;;;;;20.00;19.40;;;;;18.38;56.80;99641.03;6006066;29;96494;-60
2023/05/03 13:05:48;;;;;;;;;19.00;17.00;;;;;18.30;56.60;99633.28;6007479;29;96329;-60
2023/05/03 13:08:52;;;;;;;;;15.40;15.40;;;;;18.25;56.68;99635.94;5996730;29;97313;-60
2023/05/03 13:11:56;;;;;;;;;19.00;18.00;;;;;18.22;57.08;99633.75;5980202;29;96469;-60
2023/05/03 13:15:01;;;;;;;;;16.80;15.80;;;;;18.06;56.49;99641.72;5986263;29;96836;-60
2023/05/03 13:18:08;;;;;;;;;18.00;16.60;;;;;18.00;57.25;99626.34;5985525;29;96609;-60
2023/05/03 13:21:11;;;;;;;;;20.40;19.40;;;;;17.92;57.42;99636.88;5983031;29;96493;-60
2023/05/03 13:24:15;;;;;;;;;19.50;18.50;;;;;17.82;56.54;99626.66;5983360;29;96404;-60
2023/05/03 13:27:18;;;;;;;;;19.00;19.00;;;;;17.82;56.53;99631.28;5977656;29;96316;-60
2023/05/03 13:30:22;;;;;;;;;17.00;16.80;;;;;17.75;56.47;99640.44;5977774;29;96985;-60
2023/05/03 13:33:27;;;;;;;;;21.60;19.60;;;;;17.71;55.70;99641.19;5966291;29;96590;-60
2023/05/03 13:36:32;;;;;;;;;19.75;19.00;;;;;17.68;56.29;99630.81;5978995;29;96361;-59
2023/05/03 13:39:35;;;;;;;;;19.00;18.00;;;;;17.73;56.89;99630.88;5980259;29;96466;-60
2023/05/03 13:42:38;;;;;;;;;20.20;20.20;;;;;17.58;56.36;99606.91;5974508;29;98573;-60
2023/05/03 13:45:42;;;;;;;;;20.00;19.00;;;;;17.63;55.78;99625.28;5970064;29;98426;-60
2023/05/03 13:48:47;;;;;;;;;20.00;19.40;;;;;17.52;56.19;99623.41;5980683;29;96938;-60
2023/05/03 13:51:50;;;;;;;;;22.00;20.80;;;;;17.54;56.16;99630.28;5975090;29;96427;-60
2023/05/03 13:54:53;;;;;;;;;24.00;23.00;;;;;17.51;56.16;99622.59;5992705;29;96324;-60
2023/05/03 13:57:56;;;;;;;;;23.40;21.00;;;;;17.47;56.93;99623.34;5980720;29;96915;-60
2023/05/03 14:01:00;;;;;;;;;21.50;20.00;;;;;17.46;56.79;99621.69;5979602;29;97064;-61
2023/05/03 14:04:05;;;;;;;;;22.00;20.40;;;;;17.39;56.32;99615.59;5978331;29;96249;-60
2023/05/03 14:07:08;;;;;;;;;21.40;20.40;;;;;17.39;56.54;99626.50;5979977;29;96361;-60
2023/05/03 14:10:12;;;;;;;;;22.25;22.00;;;;;17.39;56.72;99623.75;5976626;29;96309;-60